sensor_id;sensor_type;location;lat;lon;timestamp;pressure;altitude;pressure_sealevel;temperature
61977;BMP280;45905;50.570;10.428;2022-07-17T00:00:04;98910.31;;;14.45
61977;BMP280;45905;50.570;10.428;2022-07-17T00:02:32;98899.78;;;14.40
61977;BMP280;45905;50.570;10.428;2022-07-17T00:04:59;98900.25;;;14.35
61977;BMP280;45905;50.570;10.428;2022-07-17T00:07:27;98895.63;;;14.31
61977;BMP280;45905;50.570;10.428;2022-07-17T00:09:54;98897.19;;;14.24
61977;BMP280;45905;50.570;10.428;2022-07-17T00:12:21;98891.56;;;14.13
61977;BMP280;45905;50.570;10.428;2022-07-17T00:14:48;98902.22;;;14.09
61977;BMP280;45905;50.570;10.428;2022-07-17T00:17:16;98897.59;;;14.04
61977;BMP280;45905;50.570;10.428;2022-07-17T00:19:43;98911.59;;;14.00
61977;BMP280;45905;50.570;10.428;2022-07-17T00:22:10;98909.78;;;13.93
61977;BMP280;45905;50.570;10.428;2022-07-17T00:24:38;98919.16;;;13.93
61977;BMP280;45905;50.570;10.428;2022-07-17T00:27:05;98912.78;;;13.89
61977;BMP280;45905;50.570;10.428;2022-07-17T00:29:33;98903.84;;;13.85
61977;BMP280;45905;50.570;10.428;2022-07-17T00:32:00;98909.88;;;13.84
61977;BMP280;45905;50.570;10.428;2022-07-17T00:34:27;98907.78;;;13.79
61977;BMP280;45905;50.570;10.428;2022-07-17T00:36:54;98908.22;;;13.75
61977;BMP280;45905;50.570;10.428;2022-07-17T00:39:21;98901.03;;;13.71
61977;BMP280;45905;50.570;10.428;2022-07-17T00:41:49;98905.63;;;13.67
61977;BMP280;45905;50.570;10.428;2022-07-17T00:44:17;98908.63;;;13.63
61977;BMP280;45905;50.570;10.428;2022-07-17T00:46:44;98912.28;;;13.60
61977;BMP280;45905;50.570;10.428;2022-07-17T00:49:11;98921.94;;;13.57
61977;BMP280;45905;50.570;10.428;2022-07-17T00:51:39;98920.81;;;13.52
61977;BMP280;45905;50.570;10.428;2022-07-17T00:54:06;98919.66;;;13.46
61977;BMP280;45905;50.570;10.428;2022-07-17T00:56:37;98912.47;;;13.42
61977;BMP280;45905;50.570;10.428;2022-07-17T00:59:06;98911.97;;;13.38
61977;BMP280;45905;50.570;10.428;2022-07-17T01:01:34;98918.16;;;13.36
61977;BMP280;45905;50.570;10.428;2022-07-17T01:04:01;98916.84;;;13.32
61977;BMP280;45905;50.570;10.428;2022-07-17T01:06:30;98907.13;;;13.28
61977;BMP280;45905;50.570;10.428;2022-07-17T01:08:57;98910.09;;;13.23
61977;BMP280;45905;50.570;10.428;2022-07-17T01:11:24;98916.31;;;13.21
61977;BMP280;45905;50.570;10.428;2022-07-17T01:13:52;98920.88;;;13.17
61977;BMP280;45905;50.570;10.428;2022-07-17T01:16:21;98917.97;;;13.13
61977;BMP280;45905;50.570;10.428;2022-07-17T01:18:49;98919.22;;;13.09
61977;BMP280;45905;50.570;10.428;2022-07-17T01:21:16;98916.94;;;13.06
61977;BMP280;45905;50.570;10.428;2022-07-17T01:23:43;98921.69;;;13.01
61977;BMP280;45905;50.570;10.428;2022-07-17T01:26:10;98916.88;;;12.98
61977;BMP280;45905;50.570;10.428;2022-07-17T01:28:37;98916.22;;;12.96
61977;BMP280;45905;50.570;10.428;2022-07-17T01:31:04;98916.53;;;12.93
61977;BMP280;45905;50.570;10.428;2022-07-17T01:33:32;98915.22;;;12.89
61977;BMP280;45905;50.570;10.428;2022-07-17T01:35:59;98919.81;;;12.86
61977;BMP280;45905;50.570;10.428;2022-07-17T01:38:26;98918.63;;;12.80
61977;BMP280;45905;50.570;10.428;2022-07-17T01:40:53;98918.94;;;12.78
61977;BMP280;45905;50.570;10.428;2022-07-17T01:43:21;98919.06;;;12.76
61977;BMP280;45905;50.570;10.428;2022-07-17T01:45:48;98917.59;;;12.74
61977;BMP280;45905;50.570;10.428;2022-07-17T01:48:27;98919.81;;;12.69
61977;BMP280;45905;50.570;10.428;2022-07-17T01:50:55;98918.19;;;12.68
61977;BMP280;45905;50.570;10.428;2022-07-17T01:53:22;98925.44;;;12.63
61977;BMP280;45905;50.570;10.428;2022-07-17T01:55:49;98912.63;;;12.55
61977;BMP280;45905;50.570;10.428;2022-07-17T01:58:17;98912.75;;;12.54
61977;BMP280;45905;50.570;10.428;2022-07-17T02:00:44;98913.19;;;12.49
61977;BMP280;45905;50.570;10.428;2022-07-17T02:03:11;98913.34;;;12.48
61977;BMP280;45905;50.570;10.428;2022-07-17T02:05:38;98908.41;;;12.46
61977;BMP280;45905;50.570;10.428;2022-07-17T02:08:06;98909.63;;;12.42
61977;BMP280;45905;50.570;10.428;2022-07-17T02:10:33;98908.75;;;12.34
61977;BMP280;45905;50.570;10.428;2022-07-17T02:13:01;98916.78;;;12.30
61977;BMP280;45905;50.570;10.428;2022-07-17T02:15:28;98917.84;;;12.27
61977;BMP280;45905;50.570;10.428;2022-07-17T02:17:56;98917.38;;;12.24
61977;BMP280;45905;50.570;10.428;2022-07-17T02:20:24;98921.78;;;12.22
61977;BMP280;45905;50.570;10.428;2022-07-17T02:22:52;98921.13;;;12.20
61977;BMP280;45905;50.570;10.428;2022-07-17T02:25:19;98921.38;;;12.17
61977;BMP280;45905;50.570;10.428;2022-07-17T02:27:49;98923.41;;;12.14
61977;BMP280;45905;50.570;10.428;2022-07-17T02:30:18;98929.56;;;12.11
61977;BMP280;45905;50.570;10.428;2022-07-17T02:32:46;98931.63;;;12.08
61977;BMP280;45905;50.570;10.428;2022-07-17T02:35:14;98932.03;;;12.03
61977;BMP280;45905;50.570;10.428;2022-07-17T02:37:42;98928.81;;;12.01
61977;BMP280;45905;50.570;10.428;2022-07-17T02:40:11;98932.44;;;11.99
61977;BMP280;45905;50.570;10.428;2022-07-17T02:42:38;98925.25;;;11.95
61977;BMP280;45905;50.570;10.428;2022-07-17T02:45:06;98929.66;;;11.93
61977;BMP280;45905;50.570;10.428;2022-07-17T02:47:35;98935.16;;;11.88
61977;BMP280;45905;50.570;10.428;2022-07-17T02:50:08;98933.97;;;11.83
61977;BMP280;45905;50.570;10.428;2022-07-17T02:52:36;98939.19;;;11.82
61977;BMP280;45905;50.570;10.428;2022-07-17T02:55:05;98937.84;;;11.78
61977;BMP280;45905;50.570;10.428;2022-07-17T02:57:33;98945.59;;;11.76
61977;BMP280;45905;50.570;10.428;2022-07-17T03:00:01;98954.47;;;11.72
61977;BMP280;45905;50.570;10.428;2022-07-17T03:02:29;98953.78;;;11.70
61977;BMP280;45905;50.570;10.428;2022-07-17T03:04:56;98948.31;;;11.65
61977;BMP280;45905;50.570;10.428;2022-07-17T03:07:24;98953.69;;;11.63
61977;BMP280;45905;50.570;10.428;2022-07-17T03:09:51;98947.94;;;11.61
61977;BMP280;45905;50.570;10.428;2022-07-17T03:12:18;98950.72;;;11.58
61977;BMP280;45905;50.570;10.428;2022-07-17T03:14:46;98937.38;;;11.56
61977;BMP280;45905;50.570;10.428;2022-07-17T03:17:13;98945.94;;;11.55
61977;BMP280;45905;50.570;10.428;2022-07-17T03:19:40;98941.94;;;11.52
61977;BMP280;45905;50.570;10.428;2022-07-17T03:22:07;98938.72;;;11.50
61977;BMP280;45905;50.570;10.428;2022-07-17T03:24:35;98934.72;;;11.48
61977;BMP280;45905;50.570;10.428;2022-07-17T03:27:02;98940.22;;;11.44
61977;BMP280;45905;50.570;10.428;2022-07-17T03:29:29;98938.50;;;11.35
61977;BMP280;45905;50.570;10.428;2022-07-17T03:31:57;98941.53;;;11.29
61977;BMP280;45905;50.570;10.428;2022-07-17T03:34:24;98945.16;;;11.26
61977;BMP280;45905;50.570;10.428;2022-07-17T03:36:52;98947.00;;;11.24
61977;BMP280;45905;50.570;10.428;2022-07-17T03:39:19;98950.47;;;11.24
61977;BMP280;45905;50.570;10.428;2022-07-17T03:41:46;98956.47;;;11.23
61977;BMP280;45905;50.570;10.428;2022-07-17T03:44:14;98971.03;;;11.21
61977;BMP280;45905;50.570;10.428;2022-07-17T03:46:41;98964.38;;;11.20
61977;BMP280;45905;50.570;10.428;2022-07-17T03:49:08;98955.28;;;11.17
61977;BMP280;45905;50.570;10.428;2022-07-17T03:51:37;98965.44;;;11.17
61977;BMP280;45905;50.570;10.428;2022-07-17T03:54:04;98967.31;;;11.15
61977;BMP280;45905;50.570;10.428;2022-07-17T03:56:31;98966.50;;;11.15
61977;BMP280;45905;50.570;10.428;2022-07-17T03:58:58;98953.13;;;11.13
61977;BMP280;45905;50.570;10.428;2022-07-17T04:01:26;98961.69;;;11.12
61977;BMP280;45905;50.570;10.428;2022-07-17T04:03:56;98961.69;;;11.12
61977;BMP280;45905;50.570;10.428;2022-07-17T04:06:23;98965.19;;;11.11
61977;BMP280;45905;50.570;10.428;2022-07-17T04:08:51;98967.03;;;11.09
61977;BMP280;45905;50.570;10.428;2022-07-17T04:11:18;98966.50;;;11.05
61977;BMP280;45905;50.570;10.428;2022-07-17T04:13:48;98966.91;;;11.01
61977;BMP280;45905;50.570;10.428;2022-07-17T04:16:15;98967.84;;;11.00
61977;BMP280;45905;50.570;10.428;2022-07-17T04:18:43;98963.69;;;10.99
61977;BMP280;45905;50.570;10.428;2022-07-17T04:21:10;98972.09;;;11.00
61977;BMP280;45905;50.570;10.428;2022-07-17T04:23:37;98967.16;;;10.98
61977;BMP280;45905;50.570;10.428;2022-07-17T04:26:06;98967.84;;;11.00
61977;BMP280;45905;50.570;10.428;2022-07-17T04:28:38;98984.53;;;11.03
61977;BMP280;45905;50.570;10.428;2022-07-17T04:31:06;98979.59;;;11.01
61977;BMP280;45905;50.570;10.428;2022-07-17T04:33:33;98979.84;;;10.98
61977;BMP280;45905;50.570;10.428;2022-07-17T04:36:03;98985.47;;;11.02
61977;BMP280;45905;50.570;10.428;2022-07-17T04:38:30;98979.97;;;11.06
61977;BMP280;45905;50.570;10.428;2022-07-17T04:40:58;98984.50;;;11.12
61977;BMP280;45905;50.570;10.428;2022-07-17T04:43:25;98974.78;;;11.17
61977;BMP280;45905;50.570;10.428;2022-07-17T04:45:52;98987.19;;;11.20
61977;BMP280;45905;50.570;10.428;2022-07-17T04:48:20;98984.38;;;11.23
61977;BMP280;45905;50.570;10.428;2022-07-17T04:50:47;98983.44;;;11.24
61977;BMP280;45905;50.570;10.428;2022-07-17T04:53:17;98988.94;;;11.19
61977;BMP280;45905;50.570;10.428;2022-07-17T04:55:50;98990.38;;;11.22
61977;BMP280;45905;50.570;10.428;2022-07-17T04:58:18;98998.41;;;11.26
61977;BMP280;45905;50.570;10.428;2022-07-17T05:00:45;98999.63;;;11.32
61977;BMP280;45905;50.570;10.428;2022-07-17T05:03:13;99008.47;;;11.37
61977;BMP280;45905;50.570;10.428;2022-07-17T05:05:42;99008.19;;;11.40
61977;BMP280;45905;50.570;10.428;2022-07-17T05:08:10;99006.56;;;11.39
61977;BMP280;45905;50.570;10.428;2022-07-17T05:10:37;99002.59;;;11.37
61977;BMP280;45905;50.570;10.428;2022-07-17T05:13:04;99015.13;;;11.38
61977;BMP280;45905;50.570;10.428;2022-07-17T05:15:32;99012.44;;;11.40
61977;BMP280;45905;50.570;10.428;2022-07-17T05:18:07;99017.25;;;11.43
61977;BMP280;45905;50.570;10.428;2022-07-17T05:20:35;99012.72;;;11.46
61977;BMP280;45905;50.570;10.428;2022-07-17T05:23:03;99006.84;;;11.45
61977;BMP280;45905;50.570;10.428;2022-07-17T05:25:30;99012.44;;;11.49
61977;BMP280;45905;50.570;10.428;2022-07-17T05:27:58;99006.31;;;11.51
61977;BMP280;45905;50.570;10.428;2022-07-17T05:30:25;99005.75;;;11.57
61977;BMP280;45905;50.570;10.428;2022-07-17T05:32:52;99000.28;;;11.62
61977;BMP280;45905;50.570;10.428;2022-07-17T05:35:22;99004.94;;;11.66
61977;BMP280;45905;50.570;10.428;2022-07-17T05:37:49;99003.88;;;11.68
61977;BMP280;45905;50.570;10.428;2022-07-17T05:40:17;99006.03;;;11.73
61977;BMP280;45905;50.570;10.428;2022-07-17T05:42:44;99010.94;;;11.74
61977;BMP280;45905;50.570;10.428;2022-07-17T05:45:11;99004.66;;;11.78
61977;BMP280;45905;50.570;10.428;2022-07-17T05:47:39;99013.75;;;11.81
61977;BMP280;45905;50.570;10.428;2022-07-17T05:50:07;99008.25;;;11.85
61977;BMP280;45905;50.570;10.428;2022-07-17T05:52:34;99007.69;;;11.91
61977;BMP280;45905;50.570;10.428;2022-07-17T05:55:01;99007.16;;;11.97
61977;BMP280;45905;50.570;10.428;2022-07-17T05:57:28;99007.13;;;12.06
61977;BMP280;45905;50.570;10.428;2022-07-17T05:59:56;98996.28;;;12.13
61977;BMP280;45905;50.570;10.428;2022-07-17T06:02:23;99004.16;;;12.20
61977;BMP280;45905;50.570;10.428;2022-07-17T06:04:50;98997.56;;;12.26
61977;BMP280;45905;50.570;10.428;2022-07-17T06:07:17;99002.91;;;12.33
61977;BMP280;45905;50.570;10.428;2022-07-17T06:09:44;99007.16;;;12.41
61977;BMP280;45905;50.570;10.428;2022-07-17T06:12:11;99003.91;;;12.49
61977;BMP280;45905;50.570;10.428;2022-07-17T06:14:38;99000.78;;;12.55
61977;BMP280;45905;50.570;10.428;2022-07-17T06:17:06;99006.25;;;12.59
61977;BMP280;45905;50.570;10.428;2022-07-17T06:19:33;99009.06;;;12.66
61977;BMP280;45905;50.570;10.428;2022-07-17T06:22:00;99013.06;;;12.68
61977;BMP280;45905;50.570;10.428;2022-07-17T06:24:28;99010.75;;;12.75
61977;BMP280;45905;50.570;10.428;2022-07-17T06:26:55;99016.19;;;12.79
61977;BMP280;45905;50.570;10.428;2022-07-17T06:29:22;99004.66;;;12.85
61977;BMP280;45905;50.570;10.428;2022-07-17T06:31:49;99004.75;;;12.93
61977;BMP280;45905;50.570;10.428;2022-07-17T06:34:17;99001.75;;;12.97
61977;BMP280;45905;50.570;10.428;2022-07-17T06:36:44;98997.72;;;13.04
61977;BMP280;45905;50.570;10.428;2022-07-17T06:39:11;98993.66;;;13.11
61977;BMP280;45905;50.570;10.428;2022-07-17T06:41:39;98990.88;;;13.21
61977;BMP280;45905;50.570;10.428;2022-07-17T06:44:06;98986.50;;;13.31
61977;BMP280;45905;50.570;10.428;2022-07-17T06:46:33;98992.31;;;13.41
61977;BMP280;45905;50.570;10.428;2022-07-17T06:49:00;99003.22;;;13.51
61977;BMP280;45905;50.570;10.428;2022-07-17T06:51:28;99007.13;;;13.62
61977;BMP280;45905;50.570;10.428;2022-07-17T06:53:56;99020.59;;;13.72
61977;BMP280;45905;50.570;10.428;2022-07-17T06:56:23;99022.91;;;13.83
61977;BMP280;45905;50.570;10.428;2022-07-17T06:58:50;99041.81;;;13.97
61977;BMP280;45905;50.570;10.428;2022-07-17T07:01:17;99038.38;;;14.06
61977;BMP280;45905;50.570;10.428;2022-07-17T07:03:45;99038.28;;;14.15
61977;BMP280;45905;50.570;10.428;2022-07-17T07:06:12;99034.66;;;14.26
61977;BMP280;45905;50.570;10.428;2022-07-17T07:08:39;99019.91;;;14.37
61977;BMP280;45905;50.570;10.428;2022-07-17T07:11:07;99016.78;;;14.50
61977;BMP280;45905;50.570;10.428;2022-07-17T07:13:34;99024.00;;;14.63
61977;BMP280;45905;50.570;10.428;2022-07-17T07:16:01;99018.94;;;14.70
61977;BMP280;45905;50.570;10.428;2022-07-17T07:18:29;99011.00;;;14.81
61977;BMP280;45905;50.570;10.428;2022-07-17T07:20:56;99013.25;;;14.92
61977;BMP280;45905;50.570;10.428;2022-07-17T07:23:23;99006.47;;;15.00
61977;BMP280;45905;50.570;10.428;2022-07-17T07:25:51;99005.81;;;15.06
61977;BMP280;45905;50.570;10.428;2022-07-17T07:28:18;99002.31;;;15.15
61977;BMP280;45905;50.570;10.428;2022-07-17T07:30:46;99004.91;;;15.23
61977;BMP280;45905;50.570;10.428;2022-07-17T07:33:14;99003.16;;;15.31
61977;BMP280;45905;50.570;10.428;2022-07-17T07:35:43;98997.91;;;15.40
61977;BMP280;45905;50.570;10.428;2022-07-17T07:38:11;98990.06;;;15.49
61977;BMP280;45905;50.570;10.428;2022-07-17T07:40:38;98988.34;;;15.58
61977;BMP280;45905;50.570;10.428;2022-07-17T07:43:06;98981.47;;;15.66
61977;BMP280;45905;50.570;10.428;2022-07-17T07:45:34;98979.22;;;15.71
61977;BMP280;45905;50.570;10.428;2022-07-17T07:48:03;98978.75;;;15.75
61977;BMP280;45905;50.570;10.428;2022-07-17T07:50:36;98978.88;;;15.82
61977;BMP280;45905;50.570;10.428;2022-07-17T07:53:04;98968.00;;;15.95
61977;BMP280;45905;50.570;10.428;2022-07-17T07:55:33;98977.59;;;16.09
61977;BMP280;45905;50.570;10.428;2022-07-17T07:58:06;98980.75;;;16.19
61977;BMP280;45905;50.570;10.428;2022-07-17T08:00:34;98968.91;;;16.25
61977;BMP280;45905;50.570;10.428;2022-07-17T08:03:01;98967.28;;;16.32
61977;BMP280;45905;50.570;10.428;2022-07-17T08:05:31;98969.47;;;16.43
61977;BMP280;45905;50.570;10.428;2022-07-17T08:07:59;98967.69;;;16.51
61977;BMP280;45905;50.570;10.428;2022-07-17T08:10:26;98963.00;;;16.62
61977;BMP280;45905;50.570;10.428;2022-07-17T08:12:54;98965.97;;;16.74
61977;BMP280;45905;50.570;10.428;2022-07-17T08:15:21;98955.88;;;16.80
61977;BMP280;45905;50.570;10.428;2022-07-17T08:17:51;98955.50;;;16.83
61977;BMP280;45905;50.570;10.428;2022-07-17T08:20:20;98954.84;;;16.89
61977;BMP280;45905;50.570;10.428;2022-07-17T08:22:48;98960.91;;;16.96
61977;BMP280;45905;50.570;10.428;2022-07-17T08:25:34;98960.88;;;17.03
61977;BMP280;45905;50.570;10.428;2022-07-17T08:28:05;98960.19;;;17.09
61977;BMP280;45905;50.570;10.428;2022-07-17T08:30:33;98968.75;;;17.16
61977;BMP280;45905;50.570;10.428;2022-07-17T08:33:04;98965.72;;;17.20
61977;BMP280;45905;50.570;10.428;2022-07-17T08:35:32;98955.22;;;17.30
61977;BMP280;45905;50.570;10.428;2022-07-17T08:37:59;98954.19;;;17.38
61977;BMP280;45905;50.570;10.428;2022-07-17T08:40:34;98961.13;;;17.52
61977;BMP280;45905;50.570;10.428;2022-07-17T08:43:05;98963.00;;;17.58
61977;BMP280;45905;50.570;10.428;2022-07-17T08:45:33;98958.94;;;17.63
61977;BMP280;45905;50.570;10.428;2022-07-17T08:48:02;98954.09;;;17.68
61977;BMP280;45905;50.570;10.428;2022-07-17T08:50:34;98949.25;;;17.73
61977;BMP280;45905;50.570;10.428;2022-07-17T08:53:03;98953.31;;;17.82
61977;BMP280;45905;50.570;10.428;2022-07-17T08:55:30;98947.53;;;17.88
61977;BMP280;45905;50.570;10.428;2022-07-17T08:57:58;98949.41;;;17.94
61977;BMP280;45905;50.570;10.428;2022-07-17T09:00:28;98955.59;;;17.99
61977;BMP280;45905;50.570;10.428;2022-07-17T09:03:05;98953.91;;;18.06
61977;BMP280;45905;50.570;10.428;2022-07-17T09:05:39;98949.84;;;18.11
61977;BMP280;45905;50.570;10.428;2022-07-17T09:08:20;98946.75;;;18.15
61977;BMP280;45905;50.570;10.428;2022-07-17T09:10:52;98942.50;;;18.22
61977;BMP280;45905;50.570;10.428;2022-07-17T09:13:31;98943.81;;;18.33
61977;BMP280;45905;50.570;10.428;2022-07-17T09:16:10;98937.78;;;18.40
61977;BMP280;45905;50.570;10.428;2022-07-17T09:18:49;98929.38;;;18.46
61977;BMP280;45905;50.570;10.428;2022-07-17T09:21:24;98930.66;;;18.56
61977;BMP280;45905;50.570;10.428;2022-07-17T09:24:05;98932.94;;;18.65
61977;BMP280;45905;50.570;10.428;2022-07-17T09:26:34;98931.63;;;18.69
61977;BMP280;45905;50.570;10.428;2022-07-17T09:29:04;98933.66;;;18.73
61977;BMP280;45905;50.570;10.428;2022-07-17T09:31:33;98928.19;;;18.76
61977;BMP280;45905;50.570;10.428;2022-07-17T09:34:01;98933.88;;;18.92
61977;BMP280;45905;50.570;10.428;2022-07-17T09:36:28;98931.63;;;19.04
61977;BMP280;45905;50.570;10.428;2022-07-17T09:38:58;98919.66;;;19.10
61977;BMP280;45905;50.570;10.428;2022-07-17T09:41:26;98918.31;;;19.14
61977;BMP280;45905;50.570;10.428;2022-07-17T09:43:58;98924.91;;;19.23
61977;BMP280;45905;50.570;10.428;2022-07-17T09:46:33;98923.38;;;19.29
61977;BMP280;45905;50.570;10.428;2022-07-17T09:49:05;98919.88;;;19.36
61977;BMP280;45905;50.570;10.428;2022-07-17T09:51:38;98922.88;;;19.39
61977;BMP280;45905;50.570;10.428;2022-07-17T09:54:08;98918.97;;;19.43
61977;BMP280;45905;50.570;10.428;2022-07-17T09:56:37;98916.81;;;19.47
61977;BMP280;45905;50.570;10.428;2022-07-17T09:59:11;98912.97;;;19.57
61977;BMP280;45905;50.570;10.428;2022-07-17T10:01:41;98900.59;;;19.67
61977;BMP280;45905;50.570;10.428;2022-07-17T10:04:15;98893.53;;;19.81
61977;BMP280;45905;50.570;10.428;2022-07-17T10:06:43;98898.78;;;19.94
61977;BMP280;45905;50.570;10.428;2022-07-17T10:09:10;98902.78;;;20.03
61977;BMP280;45905;50.570;10.428;2022-07-17T10:11:40;98890.75;;;20.09
61977;BMP280;45905;50.570;10.428;2022-07-17T10:14:15;98892.16;;;20.12
61977;BMP280;45905;50.570;10.428;2022-07-17T10:16:44;98891.00;;;20.21
61977;BMP280;45905;50.570;10.428;2022-07-17T10:19:22;98891.50;;;20.37
61977;BMP280;45905;50.570;10.428;2022-07-17T10:22:05;98894.69;;;20.45
61977;BMP280;45905;50.570;10.428;2022-07-17T10:24:45;98905.78;;;20.45
61977;BMP280;45905;50.570;10.428;2022-07-17T10:27:29;98896.69;;;20.49
61977;BMP280;45905;50.570;10.428;2022-07-17T10:30:10;98903.66;;;20.68
61977;BMP280;45905;50.570;10.428;2022-07-17T10:32:38;98894.81;;;20.89
61977;BMP280;45905;50.570;10.428;2022-07-17T10:35:10;98899.97;;;20.96
61977;BMP280;45905;50.570;10.428;2022-07-17T10:40:15;98890.66;;;21.01
61977;BMP280;45905;50.570;10.428;2022-07-17T10:42:59;98892.06;;;20.97
61977;BMP280;45905;50.570;10.428;2022-07-17T10:45:31;98894.03;;;20.95
61977;BMP280;45905;50.570;10.428;2022-07-17T10:48:24;98890.53;;;21.22
61977;BMP280;45905;50.570;10.428;2022-07-17T10:50:54;98883.38;;;21.49
61977;BMP280;45905;50.570;10.428;2022-07-17T10:53:32;98877.59;;;21.72
61977;BMP280;45905;50.570;10.428;2022-07-17T10:56:08;98883.53;;;21.73
61977;BMP280;45905;50.570;10.428;2022-07-17T10:58:39;98882.53;;;21.80
61977;BMP280;45905;50.570;10.428;2022-07-17T11:01:18;98877.56;;;22.04
61977;BMP280;45905;50.570;10.428;2022-07-17T11:03:52;98867.50;;;22.33
61977;BMP280;45905;50.570;10.428;2022-07-17T11:06:36;98855.50;;;22.57
61977;BMP280;45905;50.570;10.428;2022-07-17T11:09:08;98859.59;;;22.71
61977;BMP280;45905;50.570;10.428;2022-07-17T11:14:22;98858.03;;;23.00
61977;BMP280;45905;50.570;10.428;2022-07-17T11:16:57;98861.34;;;23.07
61977;BMP280;45905;50.570;10.428;2022-07-17T11:19:38;98848.53;;;23.18
61977;BMP280;45905;50.570;10.428;2022-07-17T11:22:09;98838.91;;;23.31
61977;BMP280;45905;50.570;10.428;2022-07-17T11:24:47;98837.94;;;23.50
61977;BMP280;45905;50.570;10.428;2022-07-17T11:29:53;98847.09;;;23.87
61977;BMP280;45905;50.570;10.428;2022-07-17T11:32:21;98851.09;;;24.07
61977;BMP280;45905;50.570;10.428;2022-07-17T11:34:49;98844.16;;;24.19
61977;BMP280;45905;50.570;10.428;2022-07-17T11:37:16;98842.63;;;24.29
61977;BMP280;45905;50.570;10.428;2022-07-17T11:39:48;98836.66;;;24.29
61977;BMP280;45905;50.570;10.428;2022-07-17T11:42:20;98844.00;;;24.31
61977;BMP280;45905;50.570;10.428;2022-07-17T11:44:55;98839.97;;;24.18
61977;BMP280;45905;50.570;10.428;2022-07-17T11:47:25;98841.34;;;24.20
61977;BMP280;45905;50.570;10.428;2022-07-17T11:50:12;98848.41;;;24.31
61977;BMP280;45905;50.570;10.428;2022-07-17T11:52:46;98843.72;;;24.39
61977;BMP280;45905;50.570;10.428;2022-07-17T11:55:16;98837.91;;;24.55
61977;BMP280;45905;50.570;10.428;2022-07-17T11:57:47;98824.94;;;24.72
61977;BMP280;45905;50.570;10.428;2022-07-17T12:00:19;98832.31;;;24.98
61977;BMP280;45905;50.570;10.428;2022-07-17T12:02:57;98835.69;;;24.98
61977;BMP280;45905;50.570;10.428;2022-07-17T12:05:31;98834.31;;;24.96
61977;BMP280;45905;50.570;10.428;2022-07-17T12:08:19;98834.59;;;25.17
61977;BMP280;45905;50.570;10.428;2022-07-17T12:10:47;98824.28;;;25.28
61977;BMP280;45905;50.570;10.428;2022-07-17T12:13:14;98818.28;;;25.39
61977;BMP280;45905;50.570;10.428;2022-07-17T12:15:44;98819.88;;;25.62
61977;BMP280;45905;50.570;10.428;2022-07-17T12:18:29;98819.25;;;25.83
61977;BMP280;45905;50.570;10.428;2022-07-17T12:21:03;98807.88;;;25.95
61977;BMP280;45905;50.570;10.428;2022-07-17T12:23:38;98815.72;;;26.11
61977;BMP280;45905;50.570;10.428;2022-07-17T12:26:11;98821.31;;;26.30
61977;BMP280;45905;50.570;10.428;2022-07-17T12:28:39;98811.69;;;26.42
61977;BMP280;45905;50.570;10.428;2022-07-17T12:31:13;98819.47;;;26.42
61977;BMP280;45905;50.570;10.428;2022-07-17T12:33:43;98819.75;;;26.57
61977;BMP280;45905;50.570;10.428;2022-07-17T12:36:11;98812.00;;;26.73
61977;BMP280;45905;50.570;10.428;2022-07-17T12:38:39;98802.78;;;26.65
61977;BMP280;45905;50.570;10.428;2022-07-17T12:41:06;98809.72;;;26.76
61977;BMP280;45905;50.570;10.428;2022-07-17T12:43:33;98803.69;;;26.87
61977;BMP280;45905;50.570;10.428;2022-07-17T12:46:01;98805.25;;;27.04
61977;BMP280;45905;50.570;10.428;2022-07-17T12:48:41;98802.38;;;27.05
61977;BMP280;45905;50.570;10.428;2022-07-17T12:51:12;98801.06;;;27.03
61977;BMP280;45905;50.570;10.428;2022-07-17T12:53:43;98794.34;;;27.07
61977;BMP280;45905;50.570;10.428;2022-07-17T12:56:11;98787.75;;;27.16
61977;BMP280;45905;50.570;10.428;2022-07-17T12:58:38;98786.09;;;27.26
61977;BMP280;45905;50.570;10.428;2022-07-17T13:01:06;98789.78;;;27.46
61977;BMP280;45905;50.570;10.428;2022-07-17T13:03:34;98779.41;;;27.67
61977;BMP280;45905;50.570;10.428;2022-07-17T13:06:01;98779.13;;;27.84
61977;BMP280;45905;50.570;10.428;2022-07-17T13:08:30;98779.88;;;28.01
61977;BMP280;45905;50.570;10.428;2022-07-17T13:10:59;98775.41;;;28.22
61977;BMP280;45905;50.570;10.428;2022-07-17T13:13:28;98765.22;;;28.42
61977;BMP280;45905;50.570;10.428;2022-07-17T13:15:56;98763.84;;;28.60
61977;BMP280;45905;50.570;10.428;2022-07-17T13:18:24;98760.72;;;28.63
61977;BMP280;45905;50.570;10.428;2022-07-17T13:20:52;98759.22;;;28.72
61977;BMP280;45905;50.570;10.428;2022-07-17T13:23:27;98743.50;;;28.88
61977;BMP280;45905;50.570;10.428;2022-07-17T13:25:54;98744.16;;;29.05
61977;BMP280;45905;50.570;10.428;2022-07-17T13:28:22;98745.28;;;29.18
61977;BMP280;45905;50.570;10.428;2022-07-17T13:30:49;98743.84;;;29.37
61977;BMP280;45905;50.570;10.428;2022-07-17T13:33:16;98750.75;;;29.57
61977;BMP280;45905;50.570;10.428;2022-07-17T13:35:43;98744.28;;;29.69
61977;BMP280;45905;50.570;10.428;2022-07-17T13:38:11;98742.25;;;29.81
61977;BMP280;45905;50.570;10.428;2022-07-17T13:40:38;98745.97;;;29.95
61977;BMP280;45905;50.570;10.428;2022-07-17T13:43:07;98741.81;;;30.04
61977;BMP280;45905;50.570;10.428;2022-07-17T13:45:34;98745.78;;;30.16
61977;BMP280;45905;50.570;10.428;2022-07-17T13:48:04;98749.16;;;30.02
61977;BMP280;45905;50.570;10.428;2022-07-17T13:50:32;98738.94;;;30.05
61977;BMP280;45905;50.570;10.428;2022-07-17T13:53:00;98742.63;;;30.14
61977;BMP280;45905;50.570;10.428;2022-07-17T13:55:28;98732.22;;;30.33
61977;BMP280;45905;50.570;10.428;2022-07-17T13:58:08;98738.28;;;30.53
61977;BMP280;45905;50.570;10.428;2022-07-17T14:00:36;98734.09;;;30.67
61977;BMP280;45905;50.570;10.428;2022-07-17T14:03:03;98734.63;;;30.64
61977;BMP280;45905;50.570;10.428;2022-07-17T14:05:31;98733.59;;;30.70
61977;BMP280;45905;50.570;10.428;2022-07-17T14:07:58;98729.94;;;30.71
61977;BMP280;45905;50.570;10.428;2022-07-17T14:10:25;98735.94;;;30.76
61977;BMP280;45905;50.570;10.428;2022-07-17T14:12:52;98723.63;;;30.86
61977;BMP280;45905;50.570;10.428;2022-07-17T14:15:19;98721.56;;;30.98